sensor_id;sensor_type;location;lat;lon;timestamp;pressure;altitude;pressure_sealevel;temperature;humidity
69971;BME280;57301;50.328;8.542;2023-10-19T00:00:56;96753.13;;;9.74;100.00
69971;BME280;57301;50.328;8.542;2023-10-19T00:03:24;96754.03;;;9.88;100.00
69971;BME280;57301;50.328;8.542;2023-10-19T00:05:50;96752.81;;;9.84;100.00
69971;BME280;57301;50.328;8.542;2023-10-19T00:08:17;96740.50;;;9.83;100.00
69971;BME280;57301;50.328;8.542;2023-10-19T00:10:52;96744.25;;;9.88;100.00
69971;BME280;57301;50.328;8.542;2023-10-19T00:13:35;96745.53;;;9.71;100.00
69971;BME280;57301;50.328;8.542;2023-10-19T00:16:02;96728.69;;;9.64;100.00
69971;BME280;57301;50.328;8.542;2023-10-19T00:18:38;96733.41;;;9.90;100.00
69971;BME280;57301;50.328;8.542;2023-10-19T00:21:09;96725.84;;;9.93;100.00
69971;BME280;57301;50.328;8.542;2023-10-19T00:23:54;96717.19;;;9.85;100.00
69971;BME280;57301;50.328;8.542;2023-10-19T00:26:25;96724.19;;;9.92;100.00
69971;BME280;57301;50.328;8.542;2023-10-19T00:28:56;96715.13;;;9.87;100.00
69971;BME280;57301;50.328;8.542;2023-10-19T00:31:24;96720.03;;;9.83;100.00
69971;BME280;57301;50.328;8.542;2023-10-19T00:33:53;96709.13;;;9.78;100.00
69971;BME280;57301;50.328;8.542;2023-10-19T00:36:21;96703.81;;;9.78;100.00
69971;BME280;57301;50.328;8.542;2023-10-19T00:38:49;96705.72;;;9.84;100.00
69971;BME280;57301;50.328;8.542;2023-10-19T00:41:18;96706.81;;;9.96;100.00
69971;BME280;57301;50.328;8.542;2023-10-19T00:43:54;96710.38;;;10.10;100.00
69971;BME280;57301;50.328;8.542;2023-10-19T00:46:31;96698.44;;;10.00;100.00
69971;BME280;57301;50.328;8.542;2023-10-19T00:49:21;96707.66;;;10.25;99.94
69971;BME280;57301;50.328;8.542;2023-10-19T00:51:53;96709.03;;;10.21;99.67
69971;BME280;57301;50.328;8.542;2023-10-19T00:54:47;96709.19;;;10.13;100.00
69971;BME280;57301;50.328;8.542;2023-10-19T00:57:19;96699.16;;;10.15;100.00
69971;BME280;57301;50.328;8.542;2023-10-19T00:59:47;96690.69;;;10.33;100.00
69971;BME280;57301;50.328;8.542;2023-10-19T01:02:21;96677.34;;;10.26;100.00
69971;BME280;57301;50.328;8.542;2023-10-19T01:04:52;96682.13;;;10.37;100.00
69971;BME280;57301;50.328;8.542;2023-10-19T01:07:23;96673.97;;;10.52;100.00
69971;BME280;57301;50.328;8.542;2023-10-19T01:10:00;96670.72;;;10.50;100.00
69971;BME280;57301;50.328;8.542;2023-10-19T01:12:28;96667.31;;;10.76;100.00
69971;BME280;57301;50.328;8.542;2023-10-19T01:15:08;96666.66;;;10.67;100.00
69971;BME280;57301;50.328;8.542;2023-10-19T01:17:51;96657.69;;;10.82;100.00
69971;BME280;57301;50.328;8.542;2023-10-19T01:20:26;96657.22;;;10.65;100.00
69971;BME280;57301;50.328;8.542;2023-10-19T01:23:07;96662.00;;;10.76;100.00
69971;BME280;57301;50.328;8.542;2023-10-19T01:28:16;96637.34;;;10.74;100.00
69971;BME280;57301;50.328;8.542;2023-10-19T01:30:46;96648.47;;;10.91;100.00
69971;BME280;57301;50.328;8.542;2023-10-19T01:33:18;96641.53;;;11.10;100.00
69971;BME280;57301;50.328;8.542;2023-10-19T01:35:45;96647.50;;;11.05;100.00
69971;BME280;57301;50.328;8.542;2023-10-19T01:38:31;96639.94;;;11.22;100.00
69971;BME280;57301;50.328;8.542;2023-10-19T01:40:58;96641.59;;;11.29;100.00
69971;BME280;57301;50.328;8.542;2023-10-19T01:43:28;96636.66;;;11.40;100.00
69971;BME280;57301;50.328;8.542;2023-10-19T01:45:59;96645.69;;;11.39;100.00
69971;BME280;57301;50.328;8.542;2023-10-19T01:48:31;96640.16;;;11.40;100.00
69971;BME280;57301;50.328;8.542;2023-10-19T01:51:02;96647.53;;;11.38;100.00
69971;BME280;57301;50.328;8.542;2023-10-19T01:53:35;96636.88;;;11.65;100.00
69971;BME280;57301;50.328;8.542;2023-10-19T01:56:02;96638.09;;;11.69;100.00
69971;BME280;57301;50.328;8.542;2023-10-19T01:58:36;96628.47;;;11.54;100.00
69971;BME280;57301;50.328;8.542;2023-10-19T02:01:04;96621.47;;;11.67;100.00
69971;BME280;57301;50.328;8.542;2023-10-19T02:03:35;96621.50;;;11.60;100.00
69971;BME280;57301;50.328;8.542;2023-10-19T02:06:02;96616.53;;;11.57;100.00
69971;BME280;57301;50.328;8.542;2023-10-19T02:08:48;96616.75;;;11.62;100.00
69971;BME280;57301;50.328;8.542;2023-10-19T02:11:20;96615.50;;;11.65;100.00
69971;BME280;57301;50.328;8.542;2023-10-19T02:13:50;96612.44;;;11.61;100.00
69971;BME280;57301;50.328;8.542;2023-10-19T02:16:18;96612.84;;;11.58;100.00
69971;BME280;57301;50.328;8.542;2023-10-19T02:19:03;96614.28;;;11.67;100.00
69971;BME280;57301;50.328;8.542;2023-10-19T02:21:29;96607.50;;;11.65;100.00
69971;BME280;57301;50.328;8.542;2023-10-19T02:23:57;96613.06;;;11.63;100.00
69971;BME280;57301;50.328;8.542;2023-10-19T02:26:24;96597.84;;;11.64;100.00
69971;BME280;57301;50.328;8.542;2023-10-19T02:28:54;96592.72;;;11.82;100.00
69971;BME280;57301;50.328;8.542;2023-10-19T02:31:23;96600.50;;;11.83;100.00
69971;BME280;57301;50.328;8.542;2023-10-19T02:33:52;96599.47;;;11.78;100.00
69971;BME280;57301;50.328;8.542;2023-10-19T02:36:38;96597.25;;;11.68;100.00
69971;BME280;57301;50.328;8.542;2023-10-19T02:39:08;96587.56;;;11.80;100.00
69971;BME280;57301;50.328;8.542;2023-10-19T02:41:35;96593.53;;;11.63;100.00
69971;BME280;57301;50.328;8.542;2023-10-19T02:44:08;96592.69;;;11.75;100.00
69971;BME280;57301;50.328;8.542;2023-10-19T02:46:36;96591.88;;;11.75;100.00
69971;BME280;57301;50.328;8.542;2023-10-19T02:49:09;96586.13;;;11.78;100.00
69971;BME280;57301;50.328;8.542;2023-10-19T02:51:42;96587.78;;;11.92;100.00
69971;BME280;57301;50.328;8.542;2023-10-19T02:54:12;96583.03;;;12.01;100.00
69971;BME280;57301;50.328;8.542;2023-10-19T02:56:53;96572.16;;;11.89;100.00
69971;BME280;57301;50.328;8.542;2023-10-19T02:59:25;96579.13;;;11.90;100.00
69971;BME280;57301;50.328;8.542;2023-10-19T03:01:53;96579.56;;;11.80;100.00
69971;BME280;57301;50.328;8.542;2023-10-19T03:04:28;96574.63;;;11.91;100.00
69971;BME280;57301;50.328;8.542;2023-10-19T03:06:55;96582.00;;;12.02;100.00
69971;BME280;57301;50.328;8.542;2023-10-19T03:09:24;96573.78;;;11.90;100.00
69971;BME280;57301;50.328;8.542;2023-10-19T03:11:51;96568.84;;;12.00;100.00
69971;BME280;57301;50.328;8.542;2023-10-19T03:14:19;96567.25;;;11.86;100.00
69971;BME280;57301;50.328;8.542;2023-10-19T03:16:46;96574.84;;;11.89;100.00
69971;BME280;57301;50.328;8.542;2023-10-19T03:19:12;96574.59;;;12.10;100.00
69971;BME280;57301;50.328;8.542;2023-10-19T03:21:42;96569.63;;;12.07;100.00
69971;BME280;57301;50.328;8.542;2023-10-19T03:24:15;96573.53;;;12.18;100.00
69971;BME280;57301;50.328;8.542;2023-10-19T03:27:08;96569.44;;;12.16;100.00
69971;BME280;57301;50.328;8.542;2023-10-19T03:29:41;96574.13;;;12.20;100.00
69971;BME280;57301;50.328;8.542;2023-10-19T03:32:12;96564.94;;;12.09;100.00
69971;BME280;57301;50.328;8.542;2023-10-19T03:34:38;96564.84;;;12.29;100.00
69971;BME280;57301;50.328;8.542;2023-10-19T03:37:06;96572.91;;;12.23;100.00
69971;BME280;57301;50.328;8.542;2023-10-19T03:39:33;96570.34;;;12.41;100.00
69971;BME280;57301;50.328;8.542;2023-10-19T03:42:00;96561.66;;;12.52;100.00
69971;BME280;57301;50.328;8.542;2023-10-19T03:44:27;96568.53;;;12.35;100.00
69971;BME280;57301;50.328;8.542;2023-10-19T03:47:05;96565.69;;;12.68;100.00
69971;BME280;57301;50.328;8.542;2023-10-19T03:49:38;96553.22;;;12.87;98.83
69971;BME280;57301;50.328;8.542;2023-10-19T03:52:06;96552.63;;;12.85;98.68
69971;BME280;57301;50.328;8.542;2023-10-19T03:54:37;96557.56;;;12.81;98.98
69971;BME280;57301;50.328;8.542;2023-10-19T03:57:11;96553.25;;;12.80;98.24
69971;BME280;57301;50.328;8.542;2023-10-19T03:59:39;96552.44;;;12.80;98.42
69971;BME280;57301;50.328;8.542;2023-10-19T04:02:07;96541.94;;;12.85;97.61
69971;BME280;57301;50.328;8.542;2023-10-19T04:04:41;96538.56;;;12.64;98.72
69971;BME280;57301;50.328;8.542;2023-10-19T04:07:11;96545.53;;;12.66;98.64
69971;BME280;57301;50.328;8.542;2023-10-19T04:09:58;96541.75;;;12.80;97.26
69971;BME280;57301;50.328;8.542;2023-10-19T04:12:35;96548.44;;;12.57;98.63
69971;BME280;57301;50.328;8.542;2023-10-19T04:15:06;96535.66;;;12.28;100.00
69971;BME280;57301;50.328;8.542;2023-10-19T04:17:46;96529.50;;;12.21;100.00
69971;BME280;57301;50.328;8.542;2023-10-19T04:20:14;96532.97;;;12.34;100.00
69971;BME280;57301;50.328;8.542;2023-10-19T04:22:45;96523.94;;;12.29;100.00
69971;BME280;57301;50.328;8.542;2023-10-19T04:25:16;96524.53;;;12.31;100.00
69971;BME280;57301;50.328;8.542;2023-10-19T04:27:45;96526.03;;;12.20;100.00
69971;BME280;57301;50.328;8.542;2023-10-19T04:30:13;96518.19;;;12.25;100.00
69971;BME280;57301;50.328;8.542;2023-10-19T04:32:53;96506.09;;;12.23;100.00
69971;BME280;57301;50.328;8.542;2023-10-19T04:35:24;96505.06;;;12.24;100.00
69971;BME280;57301;50.328;8.542;2023-10-19T04:37:54;96498.84;;;12.30;100.00
69971;BME280;57301;50.328;8.542;2023-10-19T04:40:22;96498.41;;;12.33;100.00
69971;BME280;57301;50.328;8.542;2023-10-19T04:42:53;96488.97;;;12.30;100.00
69971;BME280;57301;50.328;8.542;2023-10-19T04:45:21;96497.25;;;12.22;100.00
69971;BME280;57301;50.328;8.542;2023-10-19T04:47:51;96498.19;;;12.41;100.00
69971;BME280;57301;50.328;8.542;2023-10-19T04:50:22;96499.34;;;12.14;100.00
69971;BME280;57301;50.328;8.542;2023-10-19T04:52:48;96508.94;;;12.28;100.00
69971;BME280;57301;50.328;8.542;2023-10-19T04:55:15;96508.25;;;12.39;100.00
69971;BME280;57301;50.328;8.542;2023-10-19T04:57:41;96509.97;;;12.20;100.00
69971;BME280;57301;50.328;8.542;2023-10-19T05:00:08;96516.53;;;12.31;100.00
69971;BME280;57301;50.328;8.542;2023-10-19T05:02:41;96517.25;;;12.45;100.00
69971;BME280;57301;50.328;8.542;2023-10-19T05:05:08;96520.69;;;12.20;100.00
69971;BME280;57301;50.328;8.542;2023-10-19T05:07:35;96515.22;;;12.47;100.00
69971;BME280;57301;50.328;8.542;2023-10-19T05:10:02;96522.06;;;12.68;100.00
69971;BME280;57301;50.328;8.542;2023-10-19T05:12:31;96520.03;;;12.25;100.00
69971;BME280;57301;50.328;8.542;2023-10-19T05:14:58;96511.19;;;12.31;100.00
69971;BME280;57301;50.328;8.542;2023-10-19T05:17:25;96502.84;;;12.52;100.00
69971;BME280;57301;50.328;8.542;2023-10-19T05:19:51;96511.09;;;12.44;100.00
69971;BME280;57301;50.328;8.542;2023-10-19T05:22:18;96519.84;;;12.64;100.00
69971;BME280;57301;50.328;8.542;2023-10-19T05:24:45;96518.75;;;12.41;100.00
69971;BME280;57301;50.328;8.542;2023-10-19T05:27:12;96511.34;;;12.36;100.00
69971;BME280;57301;50.328;8.542;2023-10-19T05:29:42;96505.91;;;12.18;100.00
69971;BME280;57301;50.328;8.542;2023-10-19T05:32:09;96506.19;;;12.41;100.00
69971;BME280;57301;50.328;8.542;2023-10-19T05:34:36;96496.69;;;12.45;100.00
69971;BME280;57301;50.328;8.542;2023-10-19T05:37:06;96516.72;;;12.36;100.00
69971;BME280;57301;50.328;8.542;2023-10-19T05:39:35;96510.91;;;12.39;100.00
69971;BME280;57301;50.328;8.542;2023-10-19T05:42:03;96511.31;;;12.04;100.00
69971;BME280;57301;50.328;8.542;2023-10-19T05:44:31;96514.56;;;12.06;100.00
69971;BME280;57301;50.328;8.542;2023-10-19T05:46:58;96523.69;;;11.92;100.00
69971;BME280;57301;50.328;8.542;2023-10-19T05:49:26;96525.31;;;11.93;100.00
69971;BME280;57301;50.328;8.542;2023-10-19T05:51:55;96516.09;;;11.82;100.00
69971;BME280;57301;50.328;8.542;2023-10-19T05:54:22;96519.38;;;11.71;100.00
69971;BME280;57301;50.328;8.542;2023-10-19T05:56:50;96515.47;;;11.80;100.00
69971;BME280;57301;50.328;8.542;2023-10-19T05:59:18;96522.47;;;11.75;100.00
69971;BME280;57301;50.328;8.542;2023-10-19T06:01:47;96521.84;;;11.73;100.00
69971;BME280;57301;50.328;8.542;2023-10-19T06:04:15;96523.28;;;11.82;100.00
69971;BME280;57301;50.328;8.542;2023-10-19T06:06:46;96520.41;;;11.70;100.00
69971;BME280;57301;50.328;8.542;2023-10-19T06:09:13;96515.22;;;11.95;100.00
69971;BME280;57301;50.328;8.542;2023-10-19T06:11:41;96519.66;;;12.15;100.00
69971;BME280;57301;50.328;8.542;2023-10-19T06:14:11;96519.84;;;12.20;100.00
69971;BME280;57301;50.328;8.542;2023-10-19T06:16:37;96514.25;;;12.34;100.00
69971;BME280;57301;50.328;8.542;2023-10-19T06:19:04;96522.75;;;12.56;100.00
69971;BME280;57301;50.328;8.542;2023-10-19T06:21:32;96518.81;;;12.66;99.58
69971;BME280;57301;50.328;8.542;2023-10-19T06:24:02;96532.41;;;12.57;99.54
69971;BME280;57301;50.328;8.542;2023-10-19T06:26:29;96523.94;;;12.67;98.96
69971;BME280;57301;50.328;8.542;2023-10-19T06:28:56;96527.72;;;12.53;100.00
69971;BME280;57301;50.328;8.542;2023-10-19T06:31:25;96526.16;;;12.70;99.32
69971;BME280;57301;50.328;8.542;2023-10-19T06:33:52;96521.13;;;12.87;98.30
69971;BME280;57301;50.328;8.542;2023-10-19T06:36:19;96522.44;;;12.78;98.94
69971;BME280;57301;50.328;8.542;2023-10-19T06:38:45;96521.75;;;12.89;98.14
69971;BME280;57301;50.328;8.542;2023-10-19T06:41:13;96525.44;;;12.56;99.87
69971;BME280;57301;50.328;8.542;2023-10-19T06:43:40;96529.69;;;12.64;100.00
69971;BME280;57301;50.328;8.542;2023-10-19T06:46:08;96529.00;;;13.07;97.83
69971;BME280;57301;50.328;8.542;2023-10-19T06:48:39;96532.34;;;13.02;97.83
69971;BME280;57301;50.328;8.542;2023-10-19T06:51:06;96531.59;;;13.13;97.22
69971;BME280;57301;50.328;8.542;2023-10-19T06:53:33;96531.56;;;13.27;96.68
69971;BME280;57301;50.328;8.542;2023-10-19T06:56:00;96537.28;;;13.30;97.30
69971;BME280;57301;50.328;8.542;2023-10-19T06:58:27;96532.75;;;13.31;97.04
69971;BME280;57301;50.328;8.542;2023-10-19T07:00:54;96537.38;;;13.42;96.26
69971;BME280;57301;50.328;8.542;2023-10-19T07:03:26;96534.13;;;13.40;96.74
69971;BME280;57301;50.328;8.542;2023-10-19T07:05:54;96524.50;;;13.57;95.81
69971;BME280;57301;50.328;8.542;2023-10-19T07:08:22;96537.69;;;13.77;95.06
69971;BME280;57301;50.328;8.542;2023-10-19T07:10:49;96531.94;;;13.92;94.13
69971;BME280;57301;50.328;8.542;2023-10-19T07:13:16;96528.81;;;13.77;93.93
69971;BME280;57301;50.328;8.542;2023-10-19T07:15:46;96544.53;;;13.91;94.72
69971;BME280;57301;50.328;8.542;2023-10-19T07:18:13;96533.72;;;13.98;93.66
69971;BME280;57301;50.328;8.542;2023-10-19T07:20:43;96545.13;;;13.93;94.78
69971;BME280;57301;50.328;8.542;2023-10-19T07:23:10;96548.06;;;13.67;95.66
69971;BME280;57301;50.328;8.542;2023-10-19T07:25:37;96534.13;;;13.40;96.28
69971;BME280;57301;50.328;8.542;2023-10-19T07:28:13;96527.56;;;13.97;94.61
69971;BME280;57301;50.328;8.542;2023-10-19T07:30:41;96529.72;;;14.07;93.74
69971;BME280;57301;50.328;8.542;2023-10-19T07:33:12;96520.22;;;14.41;92.56
69971;BME280;57301;50.328;8.542;2023-10-19T07:35:45;96515.41;;;14.50;92.23
69971;BME280;57301;50.328;8.542;2023-10-19T07:38:14;96526.84;;;14.57;91.52
69971;BME280;57301;50.328;8.542;2023-10-19T07:40:40;96527.19;;;14.42;92.59
69971;BME280;57301;50.328;8.542;2023-10-19T07:43:07;96520.72;;;14.68;90.96
69971;BME280;57301;50.328;8.542;2023-10-19T07:45:35;96520.00;;;14.61;91.01
69971;BME280;57301;50.328;8.542;2023-10-19T07:48:03;96529.66;;;14.62;90.87
69971;BME280;57301;50.328;8.542;2023-10-19T07:50:37;96532.00;;;15.00;89.60
69971;BME280;57301;50.328;8.542;2023-10-19T07:53:04;96526.38;;;14.60;90.71
69971;BME280;57301;50.328;8.542;2023-10-19T07:55:31;96525.47;;;15.08;89.47
69971;BME280;57301;50.328;8.542;2023-10-19T07:58:01;96532.88;;;15.24;88.11
69971;BME280;57301;50.328;8.542;2023-10-19T08:00:29;96527.66;;;15.53;87.60
69971;BME280;57301;50.328;8.542;2023-10-19T08:02:57;96528.66;;;15.52;86.82
69971;BME280;57301;50.328;8.542;2023-10-19T08:05:25;96514.41;;;15.04;87.91
69971;BME280;57301;50.328;8.542;2023-10-19T08:07:52;96520.91;;;15.09;89.71
69971;BME280;57301;50.328;8.542;2023-10-19T08:10:19;96532.09;;;14.94;90.33
69971;BME280;57301;50.328;8.542;2023-10-19T08:12:52;96528.16;;;15.08;90.12
69971;BME280;57301;50.328;8.542;2023-10-19T08:15:19;96541.84;;;14.76;91.83
69971;BME280;57301;50.328;8.542;2023-10-19T08:17:49;96521.81;;;14.91;90.42
69971;BME280;57301;50.328;8.542;2023-10-19T08:20:16;96524.06;;;15.05;90.54
69971;BME280;57301;50.328;8.542;2023-10-19T08:22:53;96541.06;;;14.88;89.93
69971;BME280;57301;50.328;8.542;2023-10-19T08:25:20;96526.63;;;14.59;91.90
69971;BME280;57301;50.328;8.542;2023-10-19T08:27:48;96523.41;;;15.33;88.23
69971;BME280;57301;50.328;8.542;2023-10-19T08:30:21;96519.09;;;15.44;87.66
69971;BME280;57301;50.328;8.542;2023-10-19T08:32:52;96519.28;;;15.08;88.86
69971;BME280;57301;50.328;8.542;2023-10-19T08:35:20;96531.09;;;14.76;90.16
69971;BME280;57301;50.328;8.542;2023-10-19T08:37:54;96525.41;;;14.85;89.45
69971;BME280;57301;50.328;8.542;2023-10-19T08:40:24;96521.09;;;14.84;89.16
69971;BME280;57301;50.328;8.542;2023-10-19T08:42:53;96519.91;;;16.44;84.67
69971;BME280;57301;50.328;8.542;2023-10-19T08:45:20;96519.41;;;16.58;82.08
69971;BME280;57301;50.328;8.542;2023-10-19T08:47:56;96514.22;;;16.97;80.39
69971;BME280;57301;50.328;8.542;2023-10-19T08:50:24;96520.56;;;16.91;81.11
69971;BME280;57301;50.328;8.542;2023-10-19T08:52:53;96521.13;;;16.64;82.01
69971;BME280;57301;50.328;8.542;2023-10-19T08:55:20;96518.84;;;16.16;83.59
69971;BME280;57301;50.328;8.542;2023-10-19T08:58:02;96503.69;;;16.96;80.07
69971;BME280;57301;50.328;8.542;2023-10-19T09:00:50;96520.06;;;16.77;80.30
69971;BME280;57301;50.328;8.542;2023-10-19T09:03:20;96511.00;;;16.83;80.50
69971;BME280;57301;50.328;8.542;2023-10-19T09:05:49;96503.72;;;17.85;78.14
69971;BME280;57301;50.328;8.542;2023-10-19T09:08:16;96497.97;;;17.98;75.11
69971;BME280;57301;50.328;8.542;2023-10-19T09:10:45;96491.63;;;18.75;73.60
69971;BME280;57301;50.328;8.542;2023-10-19T09:13:13;96486.84;;;19.14;70.69
69971;BME280;57301;50.328;8.542;2023-10-19T09:15:47;96484.16;;;19.51;69.91
69971;BME280;57301;50.328;8.542;2023-10-19T09:18:23;96481.44;;;19.14;72.07
69971;BME280;57301;50.328;8.542;2023-10-19T09:20:51;96469.88;;;19.98;68.29
69971;BME280;57301;50.328;8.542;2023-10-19T09:23:37;96465.84;;;21.09;64.75
69971;BME280;57301;50.328;8.542;2023-10-19T09:26:05;96469.63;;;21.59;62.34
69971;BME280;57301;50.328;8.542;2023-10-19T09:28:36;96466.16;;;21.33;63.62
69971;BME280;57301;50.328;8.542;2023-10-19T09:31:04;96477.50;;;21.05;63.53
69971;BME280;57301;50.328;8.542;2023-10-19T09:33:34;96477.00;;;21.33;61.68
69971;BME280;57301;50.328;8.542;2023-10-19T09:36:02;96478.84;;;21.28;62.11
69971;BME280;57301;50.328;8.542;2023-10-19T09:38:31;96480.25;;;21.40;61.08
69971;BME280;57301;50.328;8.542;2023-10-19T09:40:59;96483.72;;;21.71;60.76
69971;BME280;57301;50.328;8.542;2023-10-19T09:43:33;96483.28;;;20.35;63.16
69971;BME280;57301;50.328;8.542;2023-10-19T09:46:06;96472.91;;;21.00;62.83
69971;BME280;57301;50.328;8.542;2023-10-19T09:51:09;96463.31;;;22.10;58.89
69971;BME280;57301;50.328;8.542;2023-10-19T09:53:40;96456.50;;;22.07;57.95
69971;BME280;57301;50.328;8.542;2023-10-19T09:56:15;96445.50;;;21.58;58.30
69971;BME280;57301;50.328;8.542;2023-10-19T09:58:56;96450.69;;;21.39;59.50
69971;BME280;57301;50.328;8.542;2023-10-19T10:01:24;96443.56;;;20.61;62.07
69971;BME280;57301;50.328;8.542;2023-10-19T10:03:53;96449.28;;;19.13;67.91
69971;BME280;57301;50.328;8.542;2023-10-19T10:06:30;96456.09;;;19.20;67.05
69971;BME280;57301;50.328;8.542;2023-10-19T10:09:00;96452.28;;;19.16;68.10
69971;BME280;57301;50.328;8.542;2023-10-19T10:11:27;96461.03;;;18.42;71.51
69971;BME280;57301;50.328;8.542;2023-10-19T10:13:56;96458.53;;;18.63;71.09
69971;BME280;57301;50.328;8.542;2023-10-19T10:16:27;96450.34;;;19.12;70.01
69971;BME280;57301;50.328;8.542;2023-10-19T10:18:59;96442.78;;;21.63;60.17
69971;BME280;57301;50.328;8.542;2023-10-19T10:21:28;96444.97;;;20.69;63.79
69971;BME280;57301;50.328;8.542;2023-10-19T10:23:57;96450.81;;;19.36;68.26
69971;BME280;57301;50.328;8.542;2023-10-19T10:26:28;96447.81;;;20.37;65.86
69971;BME280;57301;50.328;8.542;2023-10-19T10:29:11;96443.75;;;18.97;68.15
69971;BME280;57301;50.328;8.542;2023-10-19T10:31:44;96439.03;;;18.56;71.26
69971;BME280;57301;50.328;8.542;2023-10-19T10:34:41;96435.50;;;18.55;70.41
69971;BME280;57301;50.328;8.542;2023-10-19T10:37:16;96430.19;;;19.62;66.59
69971;BME280;57301;50.328;8.542;2023-10-19T10:39:43;96447.56;;;19.76;66.81
69971;BME280;57301;50.328;8.542;2023-10-19T10:42:11;96438.25;;;19.19;68.57
69971;BME280;57301;50.328;8.542;2023-10-19T10:44:46;96438.66;;;19.01;68.92
69971;BME280;57301;50.328;8.542;2023-10-19T10:47:17;96460.59;;;18.07;73.53
69971;BME280;57301;50.328;8.542;2023-10-19T10:52:31;96454.00;;;18.19;73.53
69971;BME280;57301;50.328;8.542;2023-10-19T10:55:06;96470.16;;;17.03;78.56
69971;BME280;57301;50.328;8.542;2023-10-19T10:57:33;96458.47;;;16.24;81.61
69971;BME280;57301;50.328;8.542;2023-10-19T11:00:22;96457.94;;;16.10;83.05
69971;BME280;57301;50.328;8.542;2023-10-19T11:03:06;96471.09;;;16.80;80.79
69971;BME280;57301;50.328;8.542;2023-10-19T11:05:37;96472.66;;;17.99;76.51
69971;BME280;57301;50.328;8.542;2023-10-19T11:08:11;96461.44;;;19.47;69.71
69971;BME280;57301;50.328;8.542;2023-10-19T11:10:44;96457.81;;;18.67;73.41
69971;BME280;57301;50.328;8.542;2023-10-19T11:13:15;96455.91;;;17.58;76.76
69971;BME280;57301;50.328;8.542;2023-10-19T11:15:53;96458.03;;;17.95;75.35
69971;BME280;57301;50.328;8.542;2023-10-19T11:21:06;96445.34;;;16.84;80.52
69971;BME280;57301;50.328;8.542;2023-10-19T11:23:42;96439.66;;;17.53;77.77
69971;BME280;57301;50.328;8.542;2023-10-19T11:26:11;96429.84;;;16.63;81.46
69971;BME280;57301;50.328;8.542;2023-10-19T11:28:39;96443.19;;;16.12;84.46
69971;BME280;57301;50.328;8.542;2023-10-19T11:31:19;96437.09;;;16.46;83.71
69971;BME280;57301;50.328;8.542;2023-10-19T11:33:49;96442.03;;;16.37;83.48
69971;BME280;57301;50.328;8.542;2023-10-19T11:36:17;96441.88;;;16.27;84.44
69971;BME280;57301;50.328;8.542;2023-10-19T11:38:46;96441.16;;;15.91;86.07
69971;BME280;57301;50.328;8.542;2023-10-19T11:41:14;96433.44;;;15.83;87.22
69971;BME280;57301;50.328;8.542;2023-10-19T11:43:42;96431.69;;;15.89;86.76
69971;BME280;57301;50.328;8.542;2023-10-19T11:46:09;96425.16;;;15.96;86.85
69971;BME280;57301;50.328;8.542;2023-10-19T11:48:38;96426.13;;;15.78;87.41
69971;BME280;57301;50.328;8.542;2023-10-19T11:51:06;96431.09;;;15.98;86.90
69971;BME280;57301;50.328;8.542;2023-10-19T11:53:34;96433.81;;;15.87;87.68
69971;BME280;57301;50.328;8.542;2023-10-19T11:56:06;96432.06;;;15.80;88.47
69971;BME280;57301;50.328;8.542;2023-10-19T11:58:34;96424.72;;;15.76;88.09
69971;BME280;57301;50.328;8.542;2023-10-19T12:01:01;96419.34;;;15.76;88.21
69971;BME280;57301;50.328;8.542;2023-10-19T12:03:35;96420.44;;;16.03;87.45
69971;BME280;57301;50.328;8.542;2023-10-19T12:06:04;96410.75;;;16.02;87.71
69971;BME280;57301;50.328;8.542;2023-10-19T12:08:33;96408.81;;;16.15;86.77
69971;BME280;57301;50.328;8.542;2023-10-19T12:11:00;96402.03;;;16.41;85.82
69971;BME280;57301;50.328;8.542;2023-10-19T12:13:30;96395.03;;;16.39;85.45
69971;BME280;57301;50.328;8.542;2023-10-19T12:15:58;96402.09;;;16.74;83.85
69971;BME280;57301;50.328;8.542;2023-10-19T12:18:25;96404.56;;;16.76;83.85
69971;BME280;57301;50.328;8.542;2023-10-19T12:20:55;96407.16;;;16.71;83.65
69971;BME280;57301;50.328;8.542;2023-10-19T12:23:25;96398.00;;;17.05;82.75
69971;BME280;57301;50.328;8.542;2023-10-19T12:25:52;96401.13;;;17.36;81.60
69971;BME280;57301;50.328;8.542;2023-10-19T12:28:23;96389.00;;;17.33;80.63
69971;BME280;57301;50.328;8.542;2023-10-19T12:30:51;96384.88;;;17.69;79.08
69971;BME280;57301;50.328;8.542;2023-10-19T12:33:18;96384.81;;;18.08;77.57
69971;BME280;57301;50.328;8.542;2023-10-19T12:35:46;96387.78;;;17.85;78.92
69971;BME280;57301;50.328;8.542;2023-10-19T12:38:20;96387.66;;;17.36;79.50
69971;BME280;57301;50.328;8.542;2023-10-19T12:40:47;96388.25;;;17.38;80.23
69971;BME280;57301;50.328;8.542;2023-10-19T12:43:15;96386.41;;;17.05;81.90
69971;BME280;57301;50.328;8.542;2023-10-19T12:45:42;96380.34;;;17.31;80.92
69971;BME280;57301;50.328;8.542;2023-10-19T12:48:10;96375.63;;;17.22;81.72
69971;BME280;57301;50.328;8.542;2023-10-19T12:50:38;96386.28;;;16.95;82.50
69971;BME280;57301;50.328;8.542;2023-10-19T12:53:05;96377.22;;;16.84;82.72
69971;BME280;57301;50.328;8.542;2023-10-19T12:55:33;96379.84;;;16.96;82.67
69971;BME280;57301;50.328;8.542;2023-10-19T12:58:01;96380.91;;;16.78;84.26
69971;BME280;57301;50.328;8.542;2023-10-19T13:00:34;96369.66;;;16.69;84.76
69971;BME280;57301;50.328;8.542;2023-10-19T13:03:21;96374.50;;;16.67;85.94
69971;BME280;57301;50.328;8.542;2023-10-19T13:05:48;96376.38;;;17.00;84.08
69971;BME280;57301;50.328;8.542;2023-10-19T13:08:16;96366.38;;;16.96;84.17
69971;BME280;57301;50.328;8.542;2023-10-19T13:10:43;96361.78;;;17.13;83.08
69971;BME280;57301;50.328;8.542;2023-10-19T13:13:13;96357.41;;;17.29;82.40
69971;BME280;57301;50.328;8.542;2023-10-19T13:15:42;96359.84;;;17.30;82.22
69971;BME280;57301;50.328;8.542;2023-10-19T13:18:12;96358.28;;;16.96;84.16
69971;BME280;57301;50.328;8.542;2023-10-19T13:20:42;96358.38;;;17.01;83.86
69971;BME280;57301;50.328;8.542;2023-10-19T13:23:10;96357.69;;;17.10;83.26